createdAt,value
2024-02-17T00:02:04.681Z,18.25
2024-02-17T00:04:51.279Z,22.60
2024-02-17T00:07:20.009Z,21.33
2024-02-17T00:10:06.908Z,35.92
2024-02-17T00:12:53.483Z,25.55
2024-02-17T00:15:40.508Z,20.90
2024-02-17T00:18:29.776Z,18.95
2024-02-17T00:21:15.710Z,19.08
2024-02-17T00:23:42.656Z,19.08
2024-02-17T00:26:10.132Z,18.65
2024-02-17T00:28:37.389Z,17.75
2024-02-17T00:31:05.389Z,16.98
2024-02-17T00:33:32.753Z,17.73
2024-02-17T00:36:00.484Z,18.67
2024-02-17T00:38:27.739Z,15.88
2024-02-17T00:43:23.184Z,18.75
2024-02-17T00:45:51.168Z,16.40
2024-02-17T00:48:18.512Z,19.02
2024-02-17T00:50:49.704Z,19.85
2024-02-17T00:53:22.771Z,17.98
2024-02-17T00:55:50.009Z,17.05
2024-02-17T00:58:17.675Z,17.80
2024-02-17T01:00:44.957Z,15.70
2024-02-17T01:03:13.474Z,15.73
2024-02-17T01:05:43.210Z,15.52
2024-02-17T01:08:11.737Z,15.88
2024-02-17T01:10:41.285Z,14.43
2024-02-17T01:13:10.556Z,15.82
2024-02-17T01:15:37.654Z,14.50
2024-02-17T01:18:05.664Z,18.35
2024-02-17T01:20:32.804Z,15.60
2024-02-17T01:23:00.729Z,16.33
2024-02-17T01:25:28.311Z,19.85
2024-02-17T01:27:57.167Z,18.30
2024-02-17T01:32:51.855Z,18.60
2024-02-17T01:35:19.467Z,18.25
2024-02-17T01:37:49.787Z,17.85
2024-02-17T01:40:23.192Z,19.95
2024-02-17T01:42:51.098Z,20.98
2024-02-17T01:45:18.946Z,21.08
2024-02-17T01:47:48.242Z,22.95
2024-02-17T01:50:18.936Z,19.90
2024-02-17T01:52:47.632Z,19.08
2024-02-17T01:55:16.038Z,21.80
2024-02-17T01:57:47.661Z,20.25
2024-02-17T02:00:15.745Z,19.67
2024-02-17T02:02:46.438Z,20.33
2024-02-17T02:05:13.314Z,20.45
2024-02-17T02:07:40.621Z,17.80
2024-02-17T02:10:07.892Z,18.73
2024-02-17T02:12:35.018Z,19.02
2024-02-17T02:15:12.636Z,16.33
2024-02-17T02:17:40.276Z,18.95
2024-02-17T02:20:10.174Z,17.23
2024-02-17T02:22:37.381Z,18.02
2024-02-17T02:25:06.830Z,17.77
2024-02-17T02:27:40.430Z,16.92
2024-02-17T02:30:07.731Z,17.35
2024-02-17T02:32:35.098Z,17.27
2024-02-17T02:37:29.149Z,17.48
2024-02-17T02:39:56.253Z,17.20
2024-02-17T02:42:22.839Z,14.60
2024-02-17T02:44:49.650Z,16.83
2024-02-17T02:47:18.154Z,17.20
2024-02-17T02:49:45.525Z,15.05
2024-02-17T02:52:15.362Z,15.00
2024-02-17T02:54:42.466Z,13.50
2024-02-17T02:57:09.919Z,15.00
2024-02-17T02:59:36.582Z,14.48
2024-02-17T03:02:04.873Z,14.15
2024-02-17T03:04:32.310Z,17.13
2024-02-17T03:06:59.203Z,15.27
2024-02-17T03:09:25.910Z,14.30
2024-02-17T03:14:20.377Z,14.00
2024-02-17T03:16:47.614Z,15.65
2024-02-17T03:21:41.921Z,12.95
2024-02-17T03:24:08.984Z,16.35
2024-02-17T03:26:37.069Z,13.60
2024-02-17T03:29:04.306Z,11.70
2024-02-17T03:31:30.937Z,14.60
2024-02-17T03:33:59.307Z,11.77
2024-02-17T03:36:26.039Z,16.77
2024-02-17T03:38:53.133Z,12.25
2024-02-17T03:41:19.668Z,14.32
2024-02-17T03:46:13.055Z,15.23
2024-02-17T03:48:40.460Z,12.90
2024-02-17T03:53:36.500Z,12.85
2024-02-17T03:56:03.983Z,11.30
2024-02-17T03:58:30.889Z,11.77
2024-02-17T04:00:58.108Z,13.15
2024-02-17T04:05:51.836Z,13.65
2024-02-17T04:08:18.709Z,11.68
2024-02-17T04:10:45.668Z,11.63
2024-02-17T04:13:12.180Z,12.32
2024-02-17T04:15:40.380Z,13.63
2024-02-17T04:18:09.650Z,11.00
2024-02-17T04:20:39.284Z,14.10
2024-02-17T04:23:07.068Z,12.18
2024-02-17T04:25:34.329Z,10.63
2024-02-17T04:28:04.633Z,14.27
2024-02-17T04:30:31.902Z,12.23
2024-02-17T04:33:02.034Z,10.02
2024-02-17T04:35:28.866Z,13.05
2024-02-17T04:37:55.797Z,11.05
2024-02-17T04:40:22.560Z,10.27
2024-02-17T04:42:53.173Z,12.05
2024-02-17T04:45:21.351Z,11.73
2024-02-17T04:47:48.186Z,11.02
2024-02-17T04:52:44.598Z,11.95
2024-02-17T04:55:11.241Z,9.38
2024-02-17T04:57:38.470Z,13.38
2024-02-17T05:00:07.277Z,10.57
2024-02-17T05:02:38.422Z,9.55
2024-02-17T05:05:05.611Z,11.43
2024-02-17T05:07:32.881Z,8.80
2024-02-17T05:09:59.908Z,9.52
2024-02-17T05:12:27.709Z,11.00
2024-02-17T05:14:54.662Z,10.30
2024-02-17T05:17:21.393Z,13.00
2024-02-17T05:19:49.163Z,11.05
2024-02-17T05:22:16.229Z,11.52
2024-02-17T05:27:11.013Z,11.70
2024-02-17T05:29:39.208Z,13.68
2024-02-17T05:32:07.853Z,13.35
2024-02-17T05:34:35.462Z,11.27
2024-02-17T05:37:03.146Z,12.50
2024-02-17T05:39:29.975Z,14.52
2024-02-17T05:41:56.791Z,11.80
2024-02-17T05:44:23.411Z,15.80
2024-02-17T05:46:49.971Z,13.35
2024-02-17T05:49:17.285Z,12.63
2024-02-17T05:51:43.907Z,11.98
2024-02-17T05:54:11.184Z,12.50
2024-02-17T05:56:38.363Z,13.13
2024-02-17T05:59:05.122Z,12.18
2024-02-17T06:01:31.741Z,14.35
2024-02-17T06:03:59.259Z,12.68
2024-02-17T06:06:28.052Z,12.32
2024-02-17T06:08:55.006Z,13.05
2024-02-17T06:11:21.719Z,11.73
2024-02-17T06:13:48.335Z,11.32
2024-02-17T06:16:15.409Z,14.93
2024-02-17T06:19:00.839Z,14.07
2024-02-17T06:21:27.731Z,15.85
2024-02-17T06:26:24.301Z,13.30
2024-02-17T06:28:51.838Z,11.70
2024-02-17T06:31:20.275Z,12.68
2024-02-17T06:33:47.242Z,9.98
2024-02-17T06:36:14.776Z,14.63
2024-02-17T06:38:42.932Z,12.38
2024-02-17T06:41:12.924Z,14.57
2024-02-17T06:43:40.148Z,11.10
2024-02-17T06:46:08.173Z,13.13
2024-02-17T06:48:35.520Z,13.75
2024-02-17T06:51:03.222Z,12.38
2024-02-17T06:53:30.135Z,13.75
2024-02-17T06:55:57.269Z,15.48
2024-02-17T06:58:24.189Z,16.10
2024-02-17T07:00:50.950Z,17.08
2024-02-17T07:03:18.407Z,14.48
2024-02-17T07:05:45.159Z,15.60
2024-02-17T07:08:12.650Z,18.98
2024-02-17T07:10:39.387Z,15.43
2024-02-17T07:13:10.768Z,16.90
2024-02-17T07:15:37.569Z,16.85
2024-02-17T07:18:04.951Z,13.73
2024-02-17T07:20:32.775Z,15.52
2024-02-17T07:23:00.294Z,10.55
2024-02-17T07:25:31.041Z,12.73
2024-02-17T07:27:58.721Z,11.18
2024-02-17T07:30:29.745Z,10.52
2024-02-17T07:32:58.422Z,10.63
2024-02-17T07:35:25.162Z,9.90
2024-02-17T07:37:52.387Z,12.43
2024-02-17T07:42:46.095Z,14.23
2024-02-17T07:45:13.014Z,12.02
2024-02-17T07:47:40.120Z,10.57
2024-02-17T07:52:36.978Z,10.43
2024-02-17T07:55:03.767Z,13.13
2024-02-17T07:59:57.329Z,12.15
2024-02-17T08:02:23.890Z,15.65
2024-02-17T08:07:21.127Z,11.32
2024-02-17T08:09:49.800Z,11.52
2024-02-17T08:12:17.516Z,13.07
2024-02-17T08:14:44.633Z,12.98
2024-02-17T08:17:11.261Z,10.90
2024-02-17T08:19:38.544Z,9.45
2024-02-17T08:22:05.512Z,10.43
2024-02-17T08:24:32.094Z,9.63
2024-02-17T08:26:58.707Z,9.93
2024-02-17T08:29:25.392Z,9.68
2024-02-17T08:31:52.922Z,10.32
2024-02-17T08:34:20.206Z,11.57
2024-02-17T08:36:47.804Z,11.25
2024-02-17T08:39:15.466Z,12.45
2024-02-17T08:41:42.644Z,11.50
2024-02-17T08:44:11.658Z,14.63
2024-02-17T08:46:40.050Z,13.60
2024-02-17T08:49:07.103Z,13.02
2024-02-17T08:51:34.703Z,14.20
2024-02-17T08:54:01.468Z,13.75
2024-02-17T08:56:28.230Z,13.18
2024-02-17T08:58:54.628Z,17.73
2024-02-17T09:01:22.572Z,13.32
2024-02-17T09:03:49.916Z,13.90
2024-02-17T09:06:17.389Z,11.57
2024-02-17T09:08:45.483Z,14.25
2024-02-17T09:11:13.160Z,14.23
2024-02-17T09:13:40.876Z,12.25
2024-02-17T09:16:08.110Z,13.32
2024-02-17T09:21:01.694Z,12.88
2024-02-17T09:23:28.248Z,12.30
2024-02-17T09:25:54.820Z,13.00
2024-02-17T09:28:21.817Z,13.05
2024-02-17T09:30:48.530Z,15.73
2024-02-17T09:33:15.892Z,13.07
2024-02-17T09:35:42.655Z,18.20
2024-02-17T09:38:09.392Z,14.45
2024-02-17T09:40:36.282Z,13.65
2024-02-17T09:43:04.337Z,14.73
2024-02-17T09:45:31.095Z,12.80
2024-02-17T09:48:00.660Z,11.02
2024-02-17T09:50:28.049Z,13.07
2024-02-17T09:52:55.311Z,14.05
2024-02-17T09:55:23.588Z,12.00
2024-02-17T09:57:55.093Z,14.85
2024-02-17T10:00:22.894Z,12.70
2024-02-17T10:02:52.975Z,12.52
2024-02-17T10:05:22.142Z,11.32
2024-02-17T10:07:54.650Z,13.40
2024-02-17T10:10:23.450Z,14.43
2024-02-17T10:12:58.512Z,14.60
2024-02-17T10:15:26.274Z,13.07
2024-02-17T10:17:55.596Z,14.65
2024-02-17T10:20:22.719Z,14.68
2024-02-17T10:22:49.650Z,14.65
2024-02-17T10:25:16.922Z,12.57
2024-02-17T10:27:44.802Z,13.55
2024-02-17T10:30:14.124Z,15.80
2024-02-17T10:32:41.797Z,13.90
2024-02-17T10:35:10.401Z,14.02
2024-02-17T10:37:42.140Z,13.73
2024-02-17T10:40:11.643Z,13.20
2024-02-17T10:42:38.926Z,12.90
2024-02-17T10:45:06.362Z,14.73
2024-02-17T10:47:38.576Z,11.50
2024-02-17T10:50:18.005Z,13.43
2024-02-17T10:52:50.331Z,10.68
2024-02-17T10:55:24.640Z,12.55
2024-02-17T10:57:57.760Z,10.35
2024-02-17T11:00:25.633Z,10.57
2024-02-17T11:03:02.920Z,12.70
2024-02-17T11:05:32.780Z,11.90
2024-02-17T11:08:00.111Z,10.68
2024-02-17T11:10:31.409Z,9.57
2024-02-17T11:12:59.441Z,13.30
2024-02-17T11:15:26.992Z,11.15
2024-02-17T11:17:58.980Z,9.88
2024-02-17T11:20:29.686Z,10.52
2024-02-17T11:23:02.112Z,10.68
2024-02-17T11:25:36.866Z,10.18
2024-02-17T11:28:18.918Z,11.32
2024-02-17T11:30:53.166Z,10.65
2024-02-17T11:33:23.604Z,11.57
2024-02-17T11:35:51.401Z,14.13
2024-02-17T11:38:27.876Z,13.27
2024-02-17T11:40:55.957Z,11.00
2024-02-17T11:43:25.219Z,15.60
2024-02-17T11:45:55.211Z,14.02
2024-02-17T11:48:22.942Z,14.45
2024-02-17T11:50:49.736Z,11.25
2024-02-17T11:53:16.361Z,11.52
2024-02-17T11:55:43.273Z,17.10
2024-02-17T11:58:11.573Z,13.13
2024-02-17T12:00:45.993Z,12.50
2024-02-17T12:03:12.752Z,12.88
2024-02-17T12:05:39.243Z,13.60
2024-02-17T12:08:06.837Z,11.40
2024-02-17T12:10:33.476Z,11.13
2024-02-17T12:13:00.438Z,13.88
2024-02-17T12:15:27.253Z,11.93
2024-02-17T12:20:21.727Z,10.45
2024-02-17T12:22:53.763Z,12.38
2024-02-17T12:25:21.043Z,12.52
2024-02-17T12:27:49.781Z,11.55
2024-02-17T12:30:18.571Z,11.20
2024-02-17T12:32:46.726Z,11.00
2024-02-17T12:35:15.657Z,10.68
2024-02-17T12:37:44.583Z,10.30
2024-02-17T12:40:16.421Z,12.60
2024-02-17T12:42:44.451Z,10.45
2024-02-17T12:45:29.094Z,11.55
2024-02-17T12:47:56.015Z,11.98
2024-02-17T12:50:25.015Z,12.65
2024-02-17T12:52:52.835Z,11.98
2024-02-17T12:55:19.509Z,12.02
2024-02-17T12:57:46.062Z,10.95
2024-02-17T13:02:40.922Z,9.90
2024-02-17T13:05:11.510Z,11.20
2024-02-17T13:07:38.987Z,10.65
2024-02-17T13:10:07.718Z,12.20
2024-02-17T13:12:34.445Z,11.82
2024-02-17T13:17:27.409Z,9.38
2024-02-17T13:19:55.213Z,10.88
2024-02-17T13:22:22.103Z,10.55
2024-02-17T13:27:15.949Z,7.10
2024-02-17T13:29:42.997Z,10.15
2024-02-17T13:34:37.970Z,9.77
2024-02-17T13:37:05.472Z,9.65
2024-02-17T13:39:33.532Z,9.90
2024-02-17T13:42:00.650Z,9.40
2024-02-17T13:44:27.629Z,8.15
2024-02-17T13:46:56.216Z,10.77
2024-02-17T13:49:26.091Z,10.18
2024-02-17T13:51:54.590Z,10.32
2024-02-17T13:54:21.700Z,10.75
2024-02-17T13:56:48.218Z,10.57
2024-02-17T13:59:14.991Z,8.90
2024-02-17T14:01:41.542Z,11.00
2024-02-17T14:04:09.184Z,8.43
2024-02-17T14:06:35.834Z,8.02
2024-02-17T14:09:03.025Z,8.98
2024-02-17T14:11:30.103Z,9.77
2024-02-17T14:14:02.111Z,10.65
2024-02-17T14:16:29.966Z,8.23
2024-02-17T14:18:57.855Z,9.07
2024-02-17T14:21:25.839Z,9.93
2024-02-17T14:23:53.848Z,8.55
2024-02-17T14:26:20.828Z,10.43
2024-02-17T14:28:48.702Z,9.18
2024-02-17T14:31:16.796Z,10.18
2024-02-17T14:33:44.519Z,9.57
2024-02-17T14:36:12.708Z,10.07
2024-02-17T14:38:39.697Z,9.88
2024-02-17T14:41:07.293Z,10.80
2024-02-17T14:43:36.095Z,14.25
2024-02-17T14:46:03.181Z,13.20
2024-02-17T14:48:30.291Z,10.57
2024-02-17T14:50:57.534Z,10.50
2024-02-17T14:53:24.832Z,11.48
2024-02-17T14:55:53.059Z,9.10
2024-02-17T14:58:19.721Z,10.55
2024-02-17T15:00:46.900Z,9.25
2024-02-17T15:03:13.788Z,10.55
2024-02-17T15:05:40.522Z,8.07
2024-02-17T15:08:07.806Z,8.48
2024-02-17T15:10:34.675Z,8.05
2024-02-17T15:13:01.191Z,9.57
2024-02-17T15:17:56.868Z,8.88
2024-02-17T15:20:23.401Z,9.07
2024-02-17T15:22:50.521Z,7.80
2024-02-17T15:25:17.126Z,8.05
2024-02-17T15:27:44.640Z,8.95
2024-02-17T15:30:12.997Z,8.45
2024-02-17T15:32:39.852Z,7.93
2024-02-17T15:35:07.528Z,8.93
2024-02-17T15:37:35.430Z,9.30
2024-02-17T15:40:02.253Z,9.60
2024-02-17T15:42:30.145Z,8.48
2024-02-17T15:44:57.100Z,8.90
2024-02-17T15:47:24.644Z,9.80
2024-02-17T15:49:51.246Z,11.07
2024-02-17T15:54:45.476Z,8.95
2024-02-17T15:57:12.110Z,11.52
2024-02-17T15:59:38.996Z,11.25
2024-02-17T16:02:07.038Z,11.43
2024-02-17T16:04:34.222Z,10.52
2024-02-17T16:07:00.931Z,11.20
2024-02-17T16:09:33.059Z,11.55
2024-02-17T16:12:00.058Z,12.02
2024-02-17T16:14:27.103Z,12.93
2024-02-17T16:16:53.814Z,9.88
2024-02-17T16:19:20.491Z,11.43
2024-02-17T16:21:47.733Z,10.00
2024-02-17T16:24:14.884Z,9.73
2024-02-17T16:26:46.073Z,9.60
2024-02-17T16:29:12.601Z,13.80
2024-02-17T16:31:39.399Z,8.45
2024-02-17T16:34:06.868Z,9.93
2024-02-17T16:36:34.170Z,11.07
2024-02-17T16:39:04.423Z,12.07
2024-02-17T16:41:31.345Z,11.50
2024-02-17T16:43:57.931Z,10.63
2024-02-17T16:46:25.252Z,7.53
2024-02-17T16:48:52.230Z,10.80
2024-02-17T16:51:19.147Z,9.77
2024-02-17T16:53:47.088Z,10.20
2024-02-17T16:56:14.710Z,8.80
2024-02-17T16:58:41.477Z,5.15
2024-02-17T17:01:08.441Z,6.88
2024-02-17T17:03:36.530Z,7.50
2024-02-17T17:06:03.770Z,7.82
2024-02-17T17:10:58.516Z,8.68
2024-02-17T17:15:54.797Z,7.90
2024-02-17T17:18:21.642Z,7.20
2024-02-17T17:20:48.545Z,6.95
2024-02-17T17:25:45.626Z,6.88
2024-02-17T17:28:12.528Z,6.55
2024-02-17T17:30:39.619Z,6.70
2024-02-17T17:35:33.077Z,8.57
2024-02-17T17:37:59.698Z,7.93
2024-02-17T17:40:26.320Z,8.20
2024-02-17T17:42:56.941Z,6.95
2024-02-17T17:45:29.126Z,8.40
2024-02-17T17:47:55.977Z,7.43
2024-02-17T17:50:23.396Z,8.98
2024-02-17T17:52:51.717Z,8.75
2024-02-17T17:55:20.320Z,6.90
2024-02-17T17:57:47.212Z,8.73
2024-02-17T18:00:19.412Z,8.30
2024-02-17T18:02:47.229Z,8.13
2024-02-17T18:05:15.206Z,9.68
2024-02-17T18:07:42.601Z,9.00
2024-02-17T18:10:12.316Z,10.52
2024-02-17T18:12:38.833Z,7.50
2024-02-17T18:15:05.633Z,6.75
2024-02-17T18:17:33.844Z,8.27
2024-02-17T18:20:02.444Z,9.95
2024-02-17T18:22:29.357Z,9.18
2024-02-17T18:24:55.945Z,9.68
2024-02-17T18:27:23.553Z,9.07
2024-02-17T18:29:50.266Z,8.52
2024-02-17T18:32:16.971Z,8.32
2024-02-17T18:34:43.680Z,6.40
2024-02-17T18:37:10.482Z,9.77
2024-02-17T18:42:05.239Z,12.82
2024-02-17T18:44:32.259Z,9.45
2024-02-17T18:46:59.216Z,10.45
2024-02-17T18:49:26.125Z,9.48
2024-02-17T18:51:53.828Z,7.20
2024-02-17T18:54:21.573Z,10.73
2024-02-17T18:56:48.382Z,9.52
2024-02-17T18:59:16.293Z,12.48
2024-02-17T19:01:43.010Z,7.63
2024-02-17T19:04:10.212Z,6.63
2024-02-17T19:06:37.284Z,9.80
2024-02-17T19:09:04.601Z,10.27
2024-02-17T19:11:31.081Z,6.70
2024-02-17T19:13:57.863Z,8.63
2024-02-17T19:18:52.344Z,6.35
2024-02-17T19:21:19.177Z,6.60
2024-02-17T19:23:46.155Z,6.00
2024-02-17T19:26:12.737Z,8.32
2024-02-17T19:28:39.347Z,6.65
2024-02-17T19:31:07.686Z,8.57
2024-02-17T19:33:36.416Z,6.30
2024-02-17T19:36:05.847Z,7.72
2024-02-17T19:38:32.950Z,6.90
2024-02-17T19:41:00.886Z,10.55
2024-02-17T19:43:27.709Z,8.90
2024-02-17T19:45:54.601Z,10.43
2024-02-17T19:48:21.365Z,12.48
2024-02-17T19:50:48.121Z,11.88
2024-02-17T19:53:14.857Z,11.40
2024-02-17T19:55:41.454Z,8.60
2024-02-17T20:00:37.373Z,8.93
2024-02-17T20:03:04.481Z,10.80
2024-02-17T20:07:58.317Z,8.85
2024-02-17T20:10:25.172Z,12.88
2024-02-17T20:12:52.488Z,11.88
2024-02-17T20:15:19.584Z,12.77
2024-02-17T20:17:47.074Z,10.73
2024-02-17T20:20:17.046Z,11.65
2024-02-17T20:22:47.831Z,9.93
2024-02-17T20:25:14.244Z,7.95
2024-02-17T20:27:40.897Z,10.80
2024-02-17T20:30:09.309Z,9.00
2024-02-17T20:32:36.141Z,7.55
2024-02-17T20:35:04.677Z,7.82
2024-02-17T20:37:31.677Z,14.48
2024-02-17T20:40:01.172Z,12.75
2024-02-17T20:42:28.009Z,14.60
2024-02-17T20:44:54.723Z,19.30
2024-02-17T20:47:21.441Z,21.38
2024-02-17T20:52:14.948Z,16.90
2024-02-17T20:54:41.553Z,19.17
2024-02-17T20:57:08.665Z,11.30
2024-02-17T20:59:35.678Z,11.10
2024-02-17T21:02:03.184Z,13.50
2024-02-17T21:04:31.104Z,15.75
2024-02-17T21:06:57.965Z,14.50
2024-02-17T21:09:24.521Z,10.48
2024-02-17T21:14:18.262Z,8.52
2024-02-17T21:16:44.981Z,10.45
2024-02-17T21:19:12.085Z,8.02
2024-02-17T21:21:38.853Z,10.50
2024-02-17T21:24:05.663Z,8.52
2024-02-17T21:26:33.104Z,10.38
2024-02-17T21:29:00.915Z,8.88
2024-02-17T21:31:28.465Z,11.27
2024-02-17T21:33:55.593Z,7.30
2024-02-17T21:36:23.515Z,12.45
2024-02-17T21:38:50.613Z,11.73
2024-02-17T21:41:18.273Z,11.77
2024-02-17T21:43:45.082Z,10.00
2024-02-17T21:46:14.044Z,9.95
2024-02-17T21:48:41.807Z,10.02
2024-02-17T21:51:17.278Z,11.70
2024-02-17T21:53:45.207Z,9.88
2024-02-17T21:56:11.832Z,12.52
2024-02-17T21:58:42.018Z,9.18
2024-02-17T22:01:09.350Z,14.23
2024-02-17T22:03:36.051Z,6.90
2024-02-17T22:06:04.122Z,8.30
2024-02-17T22:08:30.839Z,7.43
2024-02-17T22:10:58.206Z,11.30
2024-02-17T22:13:24.987Z,9.20
2024-02-17T22:15:51.667Z,9.55
2024-02-17T22:18:20.446Z,8.90
2024-02-17T22:20:48.620Z,8.90
2024-02-17T22:23:16.304Z,8.77
2024-02-17T22:25:46.065Z,6.32
2024-02-17T22:28:13.975Z,12.80
2024-02-17T22:30:40.535Z,8.85
2024-02-17T22:33:08.051Z,9.32
2024-02-17T22:35:34.727Z,11.10
2024-02-17T22:38:04.351Z,7.45
2024-02-17T22:40:32.545Z,8.75
2024-02-17T22:43:01.154Z,12.52
2024-02-17T22:45:29.472Z,13.15
2024-02-17T22:47:56.494Z,11.88
2024-02-17T22:50:23.306Z,9.45
2024-02-17T22:52:50.307Z,10.02
2024-02-17T22:55:17.305Z,8.98
2024-02-17T23:00:23.572Z,8.68
2024-02-17T23:02:51.927Z,12.77
2024-02-17T23:05:20.343Z,14.20
2024-02-17T23:07:48.953Z,13.65
2024-02-17T23:10:16.640Z,7.88
2024-02-17T23:12:45.049Z,10.80
2024-02-17T23:15:13.136Z,10.32
2024-02-17T23:17:40.563Z,12.98
2024-02-17T23:20:10.696Z,12.25
2024-02-17T23:22:37.807Z,13.68
2024-02-17T23:25:05.596Z,13.15
2024-02-17T23:27:33.027Z,15.52
2024-02-17T23:29:59.754Z,11.75
2024-02-17T23:32:26.719Z,14.48
2024-02-17T23:34:53.778Z,12.35
2024-02-17T23:37:21.432Z,11.73
2024-02-17T23:39:48.225Z,9.23
2024-02-17T23:42:15.936Z,12.32
2024-02-17T23:44:42.633Z,13.43
2024-02-17T23:47:10.508Z,12.23
2024-02-17T23:49:37.257Z,11.13
2024-02-17T23:52:04.399Z,9.95
2024-02-17T23:56:58.850Z,10.82
2024-02-17T23:59:25.788Z,9.98
